Brandy Station, VA

11:13 PM EDT on August 31, 2016 (GMT -0400)
Culpeper Regional

Weather History for KCJR - March, 2014

Change the Weather History Date:

Thursday, March 6, 2014

  Actual Average (KOMH) Record (KOMH)
Temperature  
Mean Temperature 30 °F -  
Max Temperature 37 °F 55 °F 82 °F (1961)
Min Temperature 24 °F 33 °F 11 °F (1960)
Degree Days  
Heating Degree Days 34    
Moisture  
Dew Point 15 °F    
Average Humidity 51    
Maximum Humidity 60    
Minimum Humidity 44    
Precipitation  
Precipitation 0.00 in - - ()
Sea Level Pressure  
Sea Level Pressure 30.46 in    
Wind  
Wind Speed 6 mph (NNE)    
Max Wind Speed 12 mph    
Max Gust Speed 16 mph    
Visibility 10 miles    
Events      
Averages and records for this station are not official NWS values.
T = Trace of Precipitation, MM = Missing Value Source: NWS Daily Summary

Daily Weather History Graph

Daily Weather History Graph

Search for Another Location

Airport or City:

Trip Planner

Search our weather history database for the weather conditions in past years. The results will help you decide how hot, cold, wet, or windy it might be!

Date:

Astronomy

Mar. 06, 2014 Rise Set
Actual Time 6:36 AM EST 6:09 PM EST
Civil Twilight 6:09 AM EST 6:36 PM EST
Nautical Twilight 5:39 AM EST 7:06 PM EST
Astronomical Twilight 5:08 AM EST 7:37 PM EST
Moon 9:46 AM EST (3/6) No Moon Set
Length of Visible Light 12h 26m
Length of Day
11h 33m
Waxing Crescent, 32% of the Moon is Illuminated
Mar 6
Waxing Crescent
Mar 8
First Quarter
Mar 16
Full
Mar 23
Last Quarter
Mar 30
New

Hourly Weather History & Observations

Time (EST) Temp. Windchill Dew Point Humidity Pressure Visibility Wind Dir Wind Speed Gust Speed Precip Events Conditions
12:15 AM 32.0 °F 27.5 °F 12.2 °F 44% 30.39 in 10.0 mi NNE 4.6 mph - N/A   Clear
12:35 AM 32.0 °F 27.5 °F 12.2 °F 44% 30.40 in 10.0 mi NNE 4.6 mph - N/A   Clear
12:55 AM 30.2 °F 24.3 °F 12.2 °F 47% 30.41 in 10.0 mi North 5.8 mph - N/A   Clear
1:15 AM 30.2 °F 23.4 °F 12.2 °F 47% 30.41 in 10.0 mi North 6.9 mph - N/A   Clear
1:35 AM 32.0 °F 25.6 °F 12.2 °F 44% 30.41 in 10.0 mi NNE 6.9 mph - N/A   Clear
1:55 AM 30.2 °F 22.6 °F 14.0 °F 51% 30.42 in 10.0 mi North 8.1 mph - N/A   Clear
2:15 AM 30.2 °F 23.4 °F 15.8 °F 55% 30.42 in 10.0 mi NNE 6.9 mph - N/A   Clear
2:35 AM 30.2 °F 21.9 °F 14.0 °F 51% 30.43 in 10.0 mi NNE 9.2 mph - N/A   Clear
2:55 AM 30.2 °F 21.9 °F 14.0 °F 51% 30.43 in 10.0 mi NNE 9.2 mph - N/A   Clear
3:15 AM 30.2 °F 21.9 °F 14.0 °F 51% 30.42 in 10.0 mi NNE 9.2 mph - N/A   Clear
3:35 AM 28.4 °F 18.5 °F 12.2 °F 51% 30.43 in 10.0 mi NNE 11.5 mph - N/A   Clear
3:55 AM 28.4 °F 19.7 °F 12.2 °F 51% 30.44 in 10.0 mi NNE 9.2 mph - N/A   Clear
4:15 AM 28.4 °F 20.4 °F 10.4 °F 47% 30.44 in 10.0 mi NNE 8.1 mph - N/A   Clear
4:35 AM 28.4 °F 20.4 °F 12.2 °F 51% 30.45 in 10.0 mi NNE 8.1 mph - N/A   Clear
4:55 AM 26.6 °F 18.2 °F 12.2 °F 55% 30.45 in 10.0 mi NNE 8.1 mph - N/A   Clear
5:15 AM 26.6 °F 16.2 °F 10.4 °F 51% 30.45 in 10.0 mi NNE 11.5 mph - N/A   Clear
5:35 AM 26.6 °F 20.0 °F 12.2 °F 55% 30.46 in 10.0 mi North 5.8 mph - N/A   Clear
5:55 AM 26.6 °F 17.5 °F 10.4 °F 51% 30.47 in 10.0 mi NNE 9.2 mph - N/A   Clear
6:15 AM 26.6 °F 18.2 °F 10.4 °F 51% 30.49 in 10.0 mi NNE 8.1 mph - N/A   Clear
6:35 AM 24.8 °F 16.1 °F 10.4 °F 54% 30.50 in 10.0 mi NNE 8.1 mph - N/A   Clear
6:55 AM 24.8 °F 16.1 °F 10.4 °F 54% 30.51 in 10.0 mi NNE 8.1 mph - N/A   Clear
7:15 AM 24.8 °F 19.1 °F 10.4 °F 54% 30.52 in 10.0 mi North 4.6 mph - N/A   Clear
7:35 AM 24.8 °F 19.1 °F 10.4 °F 54% 30.54 in 10.0 mi North 4.6 mph - N/A   Clear
7:55 AM 26.6 °F 18.2 °F 10.4 °F 51% 30.54 in 10.0 mi North 8.1 mph - N/A   Clear
8:15 AM 26.6 °F 18.2 °F 10.4 °F 51% 30.55 in 10.0 mi North 8.1 mph - N/A   Scattered Clouds
8:35 AM 26.6 °F 18.2 °F 10.4 °F 51% 30.55 in 10.0 mi NNE 8.1 mph - N/A   Clear
8:55 AM 28.4 °F 20.4 °F 10.4 °F 47% 30.55 in 10.0 mi NE 8.1 mph - N/A   Scattered Clouds
9:15 AM 28.4 °F 21.2 °F 10.4 °F 47% 30.55 in 10.0 mi NE 6.9 mph - N/A   Scattered Clouds
9:35 AM 28.4 °F 20.4 °F 12.2 °F 51% 30.55 in 10.0 mi NNE 8.1 mph - N/A   Clear
9:55 AM 28.4 °F 20.4 °F 12.2 °F 51% 30.55 in 10.0 mi NNE 8.1 mph - N/A   Scattered Clouds
10:15 AM 28.4 °F 22.2 °F 12.2 °F 51% 30.55 in 10.0 mi NNE 5.8 mph - N/A   Mostly Cloudy
10:35 AM 30.2 °F 23.4 °F 12.2 °F 47% 30.56 in 10.0 mi NE 6.9 mph - N/A   Scattered Clouds
10:55 AM 32.0 °F 25.6 °F 12.2 °F 44% 30.54 in 10.0 mi NNE 6.9 mph - N/A   Scattered Clouds
11:15 AM 33.8 °F 28.6 °F 14.0 °F 44% 30.55 in 10.0 mi NE 5.8 mph - N/A   Scattered Clouds
11:35 AM 32.0 °F 25.6 °F 14.0 °F 48% 30.55 in 10.0 mi North 6.9 mph - N/A   Scattered Clouds
11:55 AM 33.8 °F 27.7 °F 14.0 °F 44% 30.53 in 10.0 mi North 6.9 mph - N/A   Clear
12:15 PM 33.8 °F 26.4 °F 15.8 °F 48% 30.52 in 10.0 mi North 9.2 mph - N/A   Mostly Cloudy
12:35 PM 33.8 °F 28.6 °F 15.8 °F 48% 30.50 in 10.0 mi East 5.8 mph - N/A   Scattered Clouds
12:55 PM 35.6 °F 28.6 °F 15.8 °F 44% 30.48 in 10.0 mi NE 9.2 mph - N/A   Clear
1:15 PM 35.6 °F 28.0 °F 17.6 °F 48% 30.46 in 10.0 mi NNE 10.4 mph 16.1 mph N/A   Clear
1:35 PM 35.6 °F 29.9 °F 17.6 °F 48% 30.44 in 10.0 mi NE 6.9 mph - N/A   Clear
1:50 PM 35.6 °F 29.2 °F 17.6 °F 48% 30.45 in 10.0 mi NNE 8.1 mph - N/A   Clear
2:15 PM 35.6 °F 30.7 °F 17.6 °F 48% 30.44 in 10.0 mi NE 5.8 mph - N/A   Clear
2:35 PM 35.6 °F 28.6 °F 17.6 °F 48% 30.44 in 10.0 mi NNE 9.2 mph - N/A   Scattered Clouds
2:55 PM 37.4 °F 31.4 °F 17.6 °F 45% 30.44 in 10.0 mi NNE 8.1 mph - N/A   Scattered Clouds
3:15 PM 37.4 °F 32.8 °F 19.4 °F 48% 30.44 in 10.0 mi NNE 5.8 mph - N/A   Scattered Clouds
3:35 PM 37.4 °F 31.4 °F 17.6 °F 45% 30.43 in 10.0 mi NNE 8.1 mph - N/A   Clear
3:55 PM 37.4 °F 32.1 °F 17.6 °F 45% 30.43 in 10.0 mi NE 6.9 mph - N/A   Clear
4:15 PM 37.4 °F 33.8 °F 19.4 °F 48% 30.43 in 10.0 mi NE 4.6 mph - N/A   Scattered Clouds
4:35 PM 37.4 °F 32.8 °F 19.4 °F 48% 30.43 in 10.0 mi ENE 5.8 mph - N/A   Mostly Cloudy
4:55 PM 35.6 °F 31.7 °F 17.6 °F 48% 30.42 in 10.0 mi East 4.6 mph - N/A   Scattered Clouds
5:15 PM 35.6 °F 31.7 °F 19.4 °F 52% 30.42 in 10.0 mi East 4.6 mph - N/A   Clear
5:35 PM 35.6 °F 31.7 °F 19.4 °F 52% 30.43 in 10.0 mi ENE 4.6 mph - N/A   Clear
5:55 PM 33.8 °F - 19.4 °F 56% 30.43 in 10.0 mi Calm Calm - N/A   Clear
6:15 PM 33.8 °F 30.8 °F 19.4 °F 56% 30.44 in 10.0 mi ENE 3.5 mph - N/A   Clear
6:30 PM 33.8 °F - 19.4 °F 56% 30.44 in 10.0 mi Calm Calm - N/A   Clear
6:55 PM 33.8 °F - 19.4 °F 56% 30.44 in 10.0 mi Calm Calm - N/A   Clear
7:15 PM 33.8 °F - 19.4 °F 56% 30.43 in 10.0 mi Calm Calm - N/A   Clear
7:35 PM 33.8 °F - 19.4 °F 56% 30.44 in 10.0 mi Calm Calm - N/A   Mostly Cloudy
7:55 PM 33.8 °F 30.8 °F 19.4 °F 56% 30.43 in 10.0 mi NE 3.5 mph - N/A   Overcast
8:15 PM 33.8 °F 28.6 °F 17.6 °F 52% 30.42 in 10.0 mi ENE 5.8 mph - N/A   Overcast
8:35 PM 33.8 °F 29.6 °F 17.6 °F 52% 30.41 in 10.0 mi NE 4.6 mph - N/A   Overcast
8:55 PM 33.8 °F 30.8 °F 19.4 °F 56% 30.42 in 10.0 mi NE 3.5 mph - N/A   Overcast
9:15 PM 33.8 °F 29.6 °F 19.4 °F 56% 30.42 in 10.0 mi NNE 4.6 mph - N/A   Overcast
9:35 PM 33.8 °F 30.8 °F 19.4 °F 56% 30.42 in 10.0 mi ENE 3.5 mph - N/A   Overcast
9:55 PM 33.8 °F 30.8 °F 17.6 °F 52% 30.41 in 10.0 mi NE 3.5 mph - N/A   Overcast
10:15 PM 33.8 °F 29.6 °F 17.6 °F 52% 30.41 in 10.0 mi NE 4.6 mph - N/A   Overcast
10:35 PM 32.0 °F 27.5 °F 17.6 °F 55% 30.40 in 10.0 mi NE 4.6 mph - N/A   Overcast
10:55 PM 32.0 °F 28.7 °F 17.6 °F 55% 30.39 in 10.0 mi NE 3.5 mph - N/A   Overcast
11:15 PM 32.0 °F 27.5 °F 17.6 °F 55% 30.38 in 10.0 mi NE 4.6 mph - N/A   Overcast
11:35 PM 32.0 °F 26.4 °F 19.4 °F 60% 30.37 in 10.0 mi NNE 5.8 mph - N/A   Overcast
11:55 PM 32.0 °F 28.7 °F 19.4 °F 60% 30.36 in 10.0 mi ENE 3.5 mph - N/A   Overcast